Time;durP1;ratioP1;P1;durP2;ratioP2;P2;SDS_P1;SDS_P2;PMS_P1;PMS_P2;Temp;Humidity;BMP_temperature;BMP_pressure;BME280_temperature;BME280_humidity;BME280_pressure;Samples;Min_cycle;Max_cycle;Signal;HPM_P1;HPM_P2
2022/10/17 00:00:44;;;;;;;;;;;19.90;71.40;;;;;;4477851;32;19981;-69
2022/10/17 00:03:09;;;;;;;;;;;19.90;71.40;;;;;;4463818;32;20047;-69
2022/10/17 00:05:40;;;;;;;;;;;19.80;71.30;;;;;;4477723;32;20108;-69
2022/10/17 00:08:05;;;;;;;;;;;19.80;71.40;;;;;;4477981;32;20067;-69
2022/10/17 00:10:31;;;;;;;;;;;19.80;71.30;;;;;;4477987;32;20095;-70
2022/10/17 00:12:57;;;;;;;;;;;19.80;71.30;;;;;;4477547;32;20010;-70
2022/10/17 00:15:27;;;;;;;;;;;19.80;71.30;;;;;;4478047;32;20025;-69
2022/10/17 00:17:55;;;;;;;;;;;19.80;71.30;;;;;;4478044;32;19981;-70
2022/10/17 00:20:21;;;;;;;;;;;19.80;71.30;;;;;;4478064;32;19981;-70
2022/10/17 00:22:48;;;;;;;;;;;19.80;71.30;;;;;;4477621;32;20559;-70
2022/10/17 00:25:14;;;;;;;;;;;19.80;71.30;;;;;;4477979;32;20055;-69
2022/10/17 00:27:42;;;;;;;;;;;19.80;71.30;;;;;;4464292;32;19978;-69
2022/10/17 00:30:12;;;;;;;;;;;19.80;71.30;;;;;;4477520;32;19993;-69
2022/10/17 00:32:38;;;;;;;;;;;19.80;71.30;;;;;;4477647;32;19982;-70
2022/10/17 00:35:05;;;;;;;;;;;19.70;71.20;;;;;;4477635;32;19962;-69
2022/10/17 00:37:31;;;;;;;;;;;19.70;71.20;;;;;;4477604;32;19970;-70
2022/10/17 00:39:57;;;;;;;;;;;19.80;71.30;;;;;;4477568;32;20012;-69
2022/10/17 00:42:24;;;;;;;;;;;19.70;71.20;;;;;;4477655;32;19981;-69
2022/10/17 00:45:15;;;;;;;;;;;19.70;71.20;;;;;;4477922;32;20193;-70
2022/10/17 00:47:42;;;;;;;;;;;19.70;71.20;;;;;;4472818;32;20410;-70
2022/10/17 00:50:09;;;;;;;;;;;19.70;71.20;;;;;;4477608;32;19987;-69
2022/10/17 00:52:36;;;;;;;;;;;19.70;71.20;;;;;;4477488;32;19985;-69
2022/10/17 00:55:13;;;;;;;;;;;19.70;71.20;;;;;;4477144;32;19962;-70
2022/10/17 00:57:39;;;;;;;;;;;19.70;71.20;;;;;;4477417;32;20376;-70
2022/10/17 01:00:06;;;;;;;;;;;19.70;72.00;;;;;;4477529;32;20402;-69
2022/10/17 01:02:32;;;;;;;;;;;19.70;71.20;;;;;;4477450;32;19966;-70
2022/10/17 01:04:58;;;;;;;;;;;19.70;71.20;;;;;;4477449;32;20084;-69
2022/10/17 01:07:24;;;;;;;;;;;19.70;71.20;;;;;;4476891;32;19981;-69
2022/10/17 01:09:50;;;;;;;;;;;19.60;71.10;;;;;;4477113;32;19985;-70
2022/10/17 01:12:16;;;;;;;;;;;19.60;71.20;;;;;;4476833;32;19970;-69
2022/10/17 01:14:53;;;;;;;;;;;19.60;71.20;;;;;;4476850;32;19996;-70
2022/10/17 01:17:22;;;;;;;;;;;19.60;71.20;;;;;;4477038;32;19988;-69
2022/10/17 01:20:06;;;;;;;;;;;19.60;71.20;;;;;;4477206;32;19988;-69
2022/10/17 01:22:38;;;;;;;;;;;19.60;71.10;;;;;;4476966;32;19985;-69
2022/10/17 01:25:27;;;;;;;;;;;19.60;71.20;;;;;;4463313;32;20392;-69
2022/10/17 01:27:53;;;;;;;;;;;19.60;71.20;;;;;;4477019;32;19985;-69
2022/10/17 01:30:28;;;;;;;;;;;19.60;71.10;;;;;;4476900;32;19970;-70
2022/10/17 01:32:57;;;;;;;;;;;19.60;71.10;;;;;;4476975;32;20124;-69
2022/10/17 01:35:27;;;;;;;;;;;19.60;71.10;;;;;;4476620;32;20313;-69
2022/10/17 01:38:00;;;;;;;;;;;19.60;71.10;;;;;;4476865;32;20067;-69
2022/10/17 01:40:32;;;;;;;;;;;19.60;71.20;;;;;;4476878;32;20075;-70
2022/10/17 01:42:58;;;;;;;;;;;19.60;71.10;;;;;;4476827;32;20098;-69
2022/10/17 01:45:28;;;;;;;;;;;19.60;71.10;;;;;;4476818;32;19970;-69
2022/10/17 01:47:54;;;;;;;;;;;19.60;71.10;;;;;;4476834;32;20293;-69
2022/10/17 01:50:23;;;;;;;;;;;19.50;71.20;;;;;;4476779;32;20018;-70
2022/10/17 01:52:52;;;;;;;;;;;19.60;71.10;;;;;;4476854;32;20106;-69
2022/10/17 01:55:20;;;;;;;;;;;19.50;71.10;;;;;;4477174;32;19990;-69
2022/10/17 01:57:50;;;;;;;;;;;19.50;71.10;;;;;;4477115;32;19973;-69
2022/10/17 02:00:19;;;;;;;;;;;19.50;71.10;;;;;;4476736;32;20330;-69
2022/10/17 02:02:46;;;;;;;;;;;19.50;71.10;;;;;;4476626;32;19988;-70
2022/10/17 02:05:12;;;;;;;;;;;19.50;71.10;;;;;;4476926;32;19982;-69
2022/10/17 02:07:40;;;;;;;;;;;19.50;71.10;;;;;;4478259;32;19958;-74
2022/10/17 02:10:09;;;;;;;;;;;19.50;71.10;;;;;;4480038;32;19965;-69
2022/10/17 02:12:40;;;;;;;;;;;19.50;71.10;;;;;;4479400;32;19979;-69
2022/10/17 02:15:09;;;;;;;;;;;19.50;71.10;;;;;;4479730;32;20446;-69
2022/10/17 02:17:51;;;;;;;;;;;19.50;71.10;;;;;;4479637;32;19985;-69
2022/10/17 02:20:32;;;;;;;;;;;19.50;71.10;;;;;;4479991;32;20009;-69
2022/10/17 02:23:04;;;;;;;;;;;19.50;71.10;;;;;;4479544;32;20150;-69
2022/10/17 02:25:40;;;;;;;;;;;19.50;71.10;;;;;;4479532;32;19981;-69
2022/10/17 02:28:06;;;;;;;;;;;19.40;71.00;;;;;;4479499;32;19992;-69
2022/10/17 02:30:39;;;;;;;;;;;19.40;71.00;;;;;;4479514;32;20307;-69
2022/10/17 02:33:16;;;;;;;;;;;19.50;71.10;;;;;;4479661;32;20422;-69
2022/10/17 02:35:46;;;;;;;;;;;19.40;71.00;;;;;;4479629;32;20059;-70
2022/10/17 02:38:12;;;;;;;;;;;19.40;71.00;;;;;;4479572;32;20355;-69
2022/10/17 02:40:39;;;;;;;;;;;19.40;71.00;;;;;;4479291;32;20063;-69
2022/10/17 02:43:05;;;;;;;;;;;19.40;71.10;;;;;;4478989;32;20418;-69
2022/10/17 02:45:34;;;;;;;;;;;19.40;71.00;;;;;;4479161;32;20402;-69
2022/10/17 02:48:00;;;;;;;;;;;19.40;71.00;;;;;;4479329;32;19982;-69
2022/10/17 02:50:35;;;;;;;;;;;19.40;71.00;;;;;;4479225;32;19966;-69
2022/10/17 02:53:05;;;;;;;;;;;19.40;71.00;;;;;;4479097;32;19989;-69
2022/10/17 02:55:32;;;;;;;;;;;19.40;71.00;;;;;;4479045;32;20102;-69
2022/10/17 02:57:59;;;;;;;;;;;19.40;71.00;;;;;;4478868;32;20483;-69
2022/10/17 03:00:26;;;;;;;;;;;19.40;71.00;;;;;;4478999;32;20304;-70
2022/10/17 03:02:52;;;;;;;;;;;19.40;71.00;;;;;;4478752;32;19970;-69
2022/10/17 03:05:20;;;;;;;;;;;19.40;71.00;;;;;;4478950;32;19994;-73
2022/10/17 03:07:46;;;;;;;;;;;19.40;71.00;;;;;;4478965;32;20067;-69
2022/10/17 03:10:11;;;;;;;;;;;19.30;71.00;;;;;;4478667;32;19985;-69
2022/10/17 03:12:37;;;;;;;;;;;19.40;71.00;;;;;;4478763;32;20367;-69
2022/10/17 03:15:03;;;;;;;;;;;19.30;71.00;;;;;;4478854;32;20166;-69
2022/10/17 03:17:29;;;;;;;;;;;19.30;71.00;;;;;;4478789;32;19966;-69
2022/10/17 03:19:54;;;;;;;;;;;19.30;71.00;;;;;;4478713;32;19974;-69
2022/10/17 03:22:20;;;;;;;;;;;19.30;71.00;;;;;;4478775;32;20392;-69
2022/10/17 03:24:46;;;;;;;;;;;19.30;70.90;;;;;;4478817;32;19986;-73
2022/10/17 03:27:11;;;;;;;;;;;19.30;71.00;;;;;;4478660;32;20386;-69
2022/10/17 03:29:37;;;;;;;;;;;19.30;71.00;;;;;;4478032;32;20002;-69
2022/10/17 03:32:03;;;;;;;;;;;19.30;71.00;;;;;;4478727;32;19977;-69
2022/10/17 03:34:29;;;;;;;;;;;19.30;71.00;;;;;;4478305;32;20155;-70
2022/10/17 03:36:55;;;;;;;;;;;19.30;70.90;;;;;;4478704;32;20046;-70
2022/10/17 03:39:20;;;;;;;;;;;19.30;71.00;;;;;;4478438;32;20412;-70
2022/10/17 03:41:46;;;;;;;;;;;19.30;71.00;;;;;;4478360;32;19978;-69
2022/10/17 03:44:12;;;;;;;;;;;19.30;71.00;;;;;;4478359;32;19973;-69
2022/10/17 03:46:37;;;;;;;;;;;19.30;70.80;;;;;;4478371;32;20012;-70
2022/10/17 03:49:03;;;;;;;;;;;19.30;70.90;;;;;;4478576;32;19993;-69
2022/10/17 03:51:29;;;;;;;;;;;19.20;70.80;;;;;;4464004;32;20431;-69
2022/10/17 03:53:55;;;;;;;;;;;19.30;70.90;;;;;;4478139;32;19982;-70
2022/10/17 03:56:22;;;;;;;;;;;19.30;71.00;;;;;;4464344;32;19980;-69
2022/10/17 03:58:47;;;;;;;;;;;19.30;70.90;;;;;;4463966;32;20009;-80
2022/10/17 04:01:14;;;;;;;;;;;19.20;70.90;;;;;;4478431;32;20025;-70
2022/10/17 04:03:40;;;;;;;;;;;19.20;70.80;;;;;;4477841;32;20326;-69
2022/10/17 04:06:06;;;;;;;;;;;19.30;70.90;;;;;;4478024;32;19988;-70
2022/10/17 04:08:32;;;;;;;;;;;19.30;70.90;;;;;;4478158;32;19970;-69
2022/10/17 04:11:02;;;;;;;;;;;19.20;70.90;;;;;;4463568;32;20418;-69
2022/10/17 04:13:28;;;;;;;;;;;19.20;70.90;;;;;;4478138;32;20028;-69
2022/10/17 04:15:57;;;;;;;;;;;19.20;70.80;;;;;;4477893;32;19974;-69
2022/10/17 04:18:23;;;;;;;;;;;19.20;70.90;;;;;;4478068;32;20020;-70
2022/10/17 04:20:49;;;;;;;;;;;19.20;70.80;;;;;;4477819;32;19973;-69
2022/10/17 04:23:15;;;;;;;;;;;19.20;70.90;;;;;;4478012;32;19970;-69
2022/10/17 04:25:40;;;;;;;;;;;19.20;70.90;;;;;;4477744;32;20521;-69
2022/10/17 04:28:06;;;;;;;;;;;19.20;70.90;;;;;;4477387;32;19962;-71
2022/10/17 04:30:32;;;;;;;;;;;19.20;70.90;;;;;;4477539;32;19984;-70
2022/10/17 04:32:58;;;;;;;;;;;19.20;70.80;;;;;;4477816;32;20471;-69
2022/10/17 04:35:23;;;;;;;;;;;19.20;70.80;;;;;;4477587;32;19974;-69
2022/10/17 04:37:49;;;;;;;;;;;19.20;70.80;;;;;;4477553;32;20052;-69
2022/10/17 04:40:15;;;;;;;;;;;19.20;70.80;;;;;;4477848;32;19976;-69
2022/10/17 04:42:41;;;;;;;;;;;19.20;70.80;;;;;;4477518;32;19977;-69
2022/10/17 04:45:07;;;;;;;;;;;19.20;70.80;;;;;;4463497;32;20167;-69
2022/10/17 04:47:32;;;;;;;;;;;19.20;70.90;;;;;;4477409;32;20168;-69
2022/10/17 04:49:58;;;;;;;;;;;19.20;70.80;;;;;;4477663;32;20100;-69
2022/10/17 04:52:24;;;;;;;;;;;19.20;70.80;;;;;;4477273;32;19982;-69
2022/10/17 04:54:51;;;;;;;;;;;19.20;70.80;;;;;;4477363;32;20376;-69
2022/10/17 04:57:17;;;;;;;;;;;19.10;70.80;;;;;;4477517;32;19980;-70
2022/10/17 04:59:43;;;;;;;;;;;19.10;70.80;;;;;;4477281;32;19974;-70
2022/10/17 05:02:08;;;;;;;;;;;19.20;70.90;;;;;;4477271;32;19980;-70
2022/10/17 05:04:34;;;;;;;;;;;19.10;70.80;;;;;;4476933;32;19978;-69
2022/10/17 05:07:00;;;;;;;;;;;19.10;70.80;;;;;;4477196;32;20427;-69
2022/10/17 05:09:26;;;;;;;;;;;19.10;70.80;;;;;;4476952;32;19989;-70
2022/10/17 05:11:52;;;;;;;;;;;19.10;70.80;;;;;;4477042;32;19978;-69
2022/10/17 05:14:18;;;;;;;;;;;19.10;70.80;;;;;;4477421;32;20005;-70
2022/10/17 05:16:43;;;;;;;;;;;19.10;70.80;;;;;;4477359;32;19969;-70
2022/10/17 05:19:10;;;;;;;;;;;19.10;70.80;;;;;;4463281;32;20051;-69
2022/10/17 05:21:36;;;;;;;;;;;19.10;70.70;;;;;;4477274;32;19986;-69
2022/10/17 05:24:04;;;;;;;;;;;19.10;70.80;;;;;;4476973;32;20047;-69
2022/10/17 05:26:30;;;;;;;;;;;19.10;70.80;;;;;;4477151;32;20007;-69
2022/10/17 05:28:55;;;;;;;;;;;19.10;70.80;;;;;;4462801;32;20325;-69
2022/10/17 05:31:21;;;;;;;;;;;19.10;70.80;;;;;;4476916;32;20384;-69
2022/10/17 05:33:47;;;;;;;;;;;19.10;70.80;;;;;;4476856;32;19966;-69
2022/10/17 05:36:13;;;;;;;;;;;19.10;70.80;;;;;;4476897;32;20368;-79
2022/10/17 05:38:38;;;;;;;;;;;19.10;70.80;;;;;;4462606;32;19974;-69
2022/10/17 05:41:04;;;;;;;;;;;19.10;70.80;;;;;;4462536;32;20048;-69
2022/10/17 05:43:30;;;;;;;;;;;19.10;70.80;;;;;;4479965;32;20420;-69
2022/10/17 05:45:56;;;;;;;;;;;19.10;70.80;;;;;;4480114;32;20037;-69
2022/10/17 05:48:22;;;;;;;;;;;19.10;70.80;;;;;;4480079;32;20503;-70
2022/10/17 05:50:48;;;;;;;;;;;19.10;70.80;;;;;;4479849;32;20016;-69
2022/10/17 05:53:14;;;;;;;;;;;19.10;70.80;;;;;;4480229;32;19981;-69
2022/10/17 05:55:40;;;;;;;;;;;19.10;70.80;;;;;;4480438;32;19985;-69
2022/10/17 05:58:07;;;;;;;;;;;19.10;70.80;;;;;;4479863;32;20304;-71
2022/10/17 06:00:32;;;;;;;;;;;19.10;70.80;;;;;;4479900;32;19977;-69
2022/10/17 06:02:58;;;;;;;;;;;19.00;70.80;;;;;;4480151;32;19996;-69
2022/10/17 06:05:24;;;;;;;;;;;19.00;70.70;;;;;;4480100;32;19974;-69
2022/10/17 06:07:51;;;;;;;;;;;19.00;70.80;;;;;;4480393;32;20450;-70
2022/10/17 06:10:17;;;;;;;;;;;19.00;70.80;;;;;;4480110;32;20091;-69
2022/10/17 06:12:43;;;;;;;;;;;19.00;70.80;;;;;;4479900;32;19978;-76
2022/10/17 06:15:09;;;;;;;;;;;19.00;70.80;;;;;;4479726;32;19980;-69
2022/10/17 06:17:35;;;;;;;;;;;19.00;70.80;;;;;;4479406;32;19970;-69
2022/10/17 06:20:01;;;;;;;;;;;19.00;70.80;;;;;;4479853;32;19966;-69
2022/10/17 06:22:26;;;;;;;;;;;19.00;70.80;;;;;;4479668;32;20104;-69
2022/10/17 06:24:52;;;;;;;;;;;19.00;70.80;;;;;;4479521;32;20017;-69
2022/10/17 06:27:18;;;;;;;;;;;19.00;70.80;;;;;;4479278;32;20349;-69
2022/10/17 06:29:44;;;;;;;;;;;19.00;70.80;;;;;;4479476;32;20032;-70
2022/10/17 06:32:11;;;;;;;;;;;19.00;70.80;;;;;;4479392;32;19978;-70
2022/10/17 06:34:36;;;;;;;;;;;19.00;70.80;;;;;;4479417;32;19986;-69
2022/10/17 06:37:02;;;;;;;;;;;19.00;70.90;;;;;;4479088;32;20402;-69
2022/10/17 06:39:32;;;;;;;;;;;19.00;70.80;;;;;;4479316;32;20021;-69
2022/10/17 06:41:59;;;;;;;;;;;19.00;70.80;;;;;;4479043;32;20071;-69
2022/10/17 06:44:29;;;;;;;;;;;19.00;70.80;;;;;;4465193;32;19989;-70
2022/10/17 06:46:55;;;;;;;;;;;19.00;70.80;;;;;;4479493;32;20004;-69
2022/10/17 06:49:21;;;;;;;;;;;18.90;70.80;;;;;;4479211;32;20366;-69
2022/10/17 06:51:46;;;;;;;;;;;19.00;70.80;;;;;;4479213;32;20039;-69
2022/10/17 06:54:12;;;;;;;;;;;18.90;70.80;;;;;;4464761;32;20056;-69
2022/10/17 06:56:38;;;;;;;;;;;19.00;70.90;;;;;;4478886;32;20009;-70
2022/10/17 06:59:04;;;;;;;;;;;19.00;70.80;;;;;;4478975;32;19981;-70
2022/10/17 07:01:30;;;;;;;;;;;18.90;70.70;;;;;;4478716;32;19962;-69
2022/10/17 07:03:56;;;;;;;;;;;19.00;70.70;;;;;;4478617;32;20047;-69
2022/10/17 07:06:25;;;;;;;;;;;19.00;70.80;;;;;;4479154;32;20100;-69
2022/10/17 07:08:51;;;;;;;;;;;18.90;70.80;;;;;;4478959;32;20438;-69
2022/10/17 07:11:18;;;;;;;;;;;19.00;71.20;;;;;;4478703;32;20400;-68
2022/10/17 07:13:43;;;;;;;;;;;19.00;71.40;;;;;;4478945;32;19989;-70
2022/10/17 07:16:09;;;;;;;;;;;19.00;71.60;;;;;;4479090;32;19974;-70
2022/10/17 07:18:35;;;;;;;;;;;19.00;71.80;;;;;;4478795;32;20013;-69
2022/10/17 07:21:02;;;;;;;;;;;18.90;72.70;;;;;;4478456;32;19982;-70
2022/10/17 07:23:28;;;;;;;;;;;19.00;72.00;;;;;;4478688;32;20235;-69
2022/10/17 07:26:06;;;;;;;;;;;18.90;72.00;;;;;;4478821;32;20024;-72
2022/10/17 07:28:32;;;;;;;;;;;19.00;71.90;;;;;;4478599;32;19977;-69
2022/10/17 07:31:08;;;;;;;;;;;19.00;72.00;;;;;;4478511;32;20151;-69
2022/10/17 07:33:34;;;;;;;;;;;19.00;71.90;;;;;;4451463;32;20084;-69
2022/10/17 07:36:00;;;;;;;;;;;19.00;71.90;;;;;;4478509;32;20176;-69
2022/10/17 07:38:26;;;;;;;;;;;19.00;72.10;;;;;;4478584;32;20477;-69
2022/10/17 07:40:53;;;;;;;;;;;19.00;71.90;;;;;;4478428;32;19978;-69
2022/10/17 07:43:19;;;;;;;;;;;19.00;72.10;;;;;;4478099;32;20002;-70
2022/10/17 07:45:45;;;;;;;;;;;19.00;72.20;;;;;;4478327;32;19984;-75
2022/10/17 07:48:10;;;;;;;;;;;18.90;72.20;;;;;;4478561;32;19966;-69
2022/10/17 07:50:36;;;;;;;;;;;19.00;72.10;;;;;;4464243;32;20099;-69
2022/10/17 07:53:02;;;;;;;;;;;19.00;72.30;;;;;;4477922;32;19977;-69
2022/10/17 07:55:27;;;;;;;;;;;19.00;72.30;;;;;;4478183;32;20013;-69
2022/10/17 07:57:54;;;;;;;;;;;18.90;72.20;;;;;;4478440;32;20103;-69
2022/10/17 08:00:20;;;;;;;;;;;19.00;72.20;;;;;;4478022;32;20010;-69
2022/10/17 08:02:45;;;;;;;;;;;18.90;72.20;;;;;;4478066;32;19980;-70
2022/10/17 08:05:11;;;;;;;;;;;19.00;72.20;;;;;;4463285;32;19980;-70
2022/10/17 08:07:37;;;;;;;;;;;19.00;72.20;;;;;;4478214;32;19978;-69
2022/10/17 08:10:03;;;;;;;;;;;19.00;72.30;;;;;;4477957;32;19966;-67
2022/10/17 08:12:31;;;;;;;;;;;19.00;72.20;;;;;;4477837;32;20043;-70
2022/10/17 08:14:57;;;;;;;;;;;19.00;72.30;;;;;;4477601;32;20395;-69
2022/10/17 08:17:22;;;;;;;;;;;19.00;72.20;;;;;;4477899;32;20091;-69
2022/10/17 08:19:48;;;;;;;;;;;19.00;72.30;;;;;;4477819;32;20505;-69
2022/10/17 08:22:14;;;;;;;;;;;19.00;72.50;;;;;;4463393;32;19966;-69
2022/10/17 08:24:41;;;;;;;;;;;19.00;72.30;;;;;;4477690;32;19988;-69
2022/10/17 08:27:10;;;;;;;;;;;19.00;72.30;;;;;;4478050;32;20383;-69
2022/10/17 08:29:36;;;;;;;;;;;19.00;72.40;;;;;;4463436;32;19988;-70
2022/10/17 08:32:02;;;;;;;;;;;19.00;72.50;;;;;;4477649;32;20075;-69
2022/10/17 08:34:28;;;;;;;;;;;19.00;72.50;;;;;;4477908;32;20384;-69
2022/10/17 08:36:53;;;;;;;;;;;19.00;72.50;;;;;;4477846;32;19970;-69
2022/10/17 08:39:19;;;;;;;;;;;19.00;72.60;;;;;;4477578;32;20319;-70
2022/10/17 08:41:47;;;;;;;;;;;19.00;72.60;;;;;;4477524;32;19988;-70
2022/10/17 08:44:24;;;;;;;;;;;19.00;72.60;;;;;;4477220;32;19974;-69
2022/10/17 08:46:52;;;;;;;;;;;19.00;72.70;;;;;;4478081;32;19980;-70
2022/10/17 08:49:36;;;;;;;;;;;19.00;73.00;;;;;;4477445;32;19985;-70
2022/10/17 08:52:04;;;;;;;;;;;19.00;73.00;;;;;;4477423;32;19965;-70
2022/10/17 08:54:40;;;;;;;;;;;19.00;73.20;;;;;;4477046;32;20455;-69
2022/10/17 08:57:14;;;;;;;;;;;19.00;73.20;;;;;;4477214;32;20051;-70
2022/10/17 08:59:44;;;;;;;;;;;19.00;73.10;;;;;;4477387;32;20108;-70
2022/10/17 09:02:20;;;;;;;;;;;19.00;73.30;;;;;;4477302;32;20398;-70
2022/10/17 09:05:04;;;;;;;;;;;19.00;73.20;;;;;;4477258;32;20111;-69
2022/10/17 09:07:49;;;;;;;;;;;19.00;73.20;;;;;;4477217;32;19985;-70
2022/10/17 09:10:22;;;;;;;;;;;19.00;73.50;;;;;;4477087;32;20315;-70
2022/10/17 09:13:05;;;;;;;;;;;19.00;73.30;;;;;;4462870;32;19970;-69
2022/10/17 09:15:34;;;;;;;;;;;19.00;73.40;;;;;;4476814;32;20031;-70
2022/10/17 09:18:16;;;;;;;;;;;19.00;73.50;;;;;;4477021;32;19977;-70
2022/10/17 09:20:44;;;;;;;;;;;19.00;73.40;;;;;;4477355;32;20055;-68
2022/10/17 09:23:14;;;;;;;;;;;19.00;73.50;;;;;;4476912;32;20163;-70
2022/10/17 09:25:42;;;;;;;;;;;19.00;73.40;;;;;;4476565;32;19987;-72
2022/10/17 09:28:14;;;;;;;;;;;19.00;73.50;;;;;;4462659;32;20025;-70
2022/10/17 09:30:43;;;;;;;;;;;19.00;73.50;;;;;;4476880;32;19978;-69
2022/10/17 09:33:24;;;;;;;;;;;19.00;73.90;;;;;;4476763;32;20014;-70
2022/10/17 09:35:50;;;;;;;;;;;19.00;73.80;;;;;;4462695;32;19985;-70
2022/10/17 09:38:17;;;;;;;;;;;19.00;73.50;;;;;;4462651;32;19970;-69
2022/10/17 09:40:45;;;;;;;;;;;19.00;73.60;;;;;;4476835;32;20030;-74
2022/10/17 09:43:12;;;;;;;;;;;19.00;73.60;;;;;;4477154;32;19994;-70
2022/10/17 09:45:42;;;;;;;;;;;19.00;73.70;;;;;;4462618;32;20083;-70
2022/10/17 09:48:25;;;;;;;;;;;19.00;73.80;;;;;;4477238;32;20022;-70
2022/10/17 09:50:51;;;;;;;;;;;19.00;73.70;;;;;;4476599;32;20325;-70
2022/10/17 09:53:21;;;;;;;;;;;19.00;73.60;;;;;;4476943;32;19984;-69
2022/10/17 09:55:48;;;;;;;;;;;19.00;73.80;;;;;;4477604;32;19984;-70
2022/10/17 09:58:14;;;;;;;;;;;19.00;73.70;;;;;;4476672;32;19982;-70
2022/10/17 10:00:41;;;;;;;;;;;19.00;73.80;;;;;;4476510;32;19974;-70
2022/10/17 10:03:07;;;;;;;;;;;19.00;73.90;;;;;;4476820;32;19981;-69
2022/10/17 10:05:33;;;;;;;;;;;19.00;74.10;;;;;;4476721;32;19966;-69
2022/10/17 10:08:01;;;;;;;;;;;19.00;74.00;;;;;;4476722;32;20009;-73
2022/10/17 10:10:27;;;;;;;;;;;19.00;74.10;;;;;;4476746;32;19981;-69
2022/10/17 10:13:02;;;;;;;;;;;19.00;74.00;;;;;;4476396;32;20055;-69
2022/10/17 10:15:36;;;;;;;;;;;19.00;73.90;;;;;;4476864;32;20033;-69
2022/10/17 10:18:02;;;;;;;;;;;19.00;73.90;;;;;;4476624;32;19973;-69
2022/10/17 10:20:33;;;;;;;;;;;19.00;73.80;;;;;;4476423;32;19977;-69
2022/10/17 10:23:20;;;;;;;;;;;19.00;73.70;;;;;;4476605;32;20021;-70
2022/10/17 10:25:51;;;;;;;;;;;19.00;73.80;;;;;;4476974;32;19985;-70
2022/10/17 10:28:17;;;;;;;;;;;19.00;73.80;;;;;;4477777;32;19974;-69
2022/10/17 10:30:46;;;;;;;;;;;19.00;73.80;;;;;;4479806;32;20492;-70
2022/10/17 10:33:12;;;;;;;;;;;19.00;73.90;;;;;;4479384;32;19981;-71
2022/10/17 10:35:38;;;;;;;;;;;19.00;73.80;;;;;;4479799;32;19976;-70
2022/10/17 10:38:08;;;;;;;;;;;19.00;73.70;;;;;;4479723;32;19973;-70
2022/10/17 10:40:37;;;;;;;;;;;19.00;73.90;;;;;;4479632;32;20063;-69
2022/10/17 10:43:04;;;;;;;;;;;19.00;73.90;;;;;;4478959;32;20308;-74
2022/10/17 10:45:36;;;;;;;;;;;19.00;73.90;;;;;;4479261;32;19978;-69
2022/10/17 10:48:25;;;;;;;;;;;19.00;73.80;;;;;;4479328;32;19982;-69
2022/10/17 10:50:53;;;;;;;;;;;19.00;73.90;;;;;;4474969;32;20083;-70
2022/10/17 10:53:25;;;;;;;;;;;19.00;73.90;;;;;;4478774;32;20083;-69
2022/10/17 10:55:57;;;;;;;;;;;19.00;73.90;;;;;;4479107;32;19978;-70
2022/10/17 10:58:28;;;;;;;;;;;19.00;73.90;;;;;;4479287;32;20064;-69
2022/10/17 11:00:56;;;;;;;;;;;19.00;73.90;;;;;;4479144;32;20100;-69
2022/10/17 11:03:30;;;;;;;;;;;19.00;73.80;;;;;;4478727;32;19989;-69
2022/10/17 11:05:59;;;;;;;;;;;19.00;73.90;;;;;;4479044;32;20388;-69
2022/10/17 11:08:39;;;;;;;;;;;19.00;73.90;;;;;;4478762;32;20394;-69
2022/10/17 11:11:23;;;;;;;;;;;19.00;73.90;;;;;;4477760;32;20342;-71
2022/10/17 11:14:09;;;;;;;;;;;19.00;73.90;;;;;;4477405;32;20029;-69
2022/10/17 11:16:35;;;;;;;;;;;19.00;74.00;;;;;;4472806;32;20292;-69
2022/10/17 11:19:24;;;;;;;;;;;19.00;73.90;;;;;;4464651;32;20363;-69
2022/10/17 11:22:13;;;;;;;;;;;19.00;73.90;;;;;;4474503;32;19962;-73
2022/10/17 11:24:42;;;;;;;;;;;19.00;74.00;;;;;;4478475;32;20022;-69
2022/10/17 11:27:08;;;;;;;;;;;19.00;74.00;;;;;;4478699;32;19977;-69
2022/10/17 11:29:35;;;;;;;;;;;19.00;74.10;;;;;;4478547;32;19990;-69
2022/10/17 11:32:04;;;;;;;;;;;19.00;74.10;;;;;;4478869;32;19982;-69
2022/10/17 11:34:31;;;;;;;;;;;19.00;74.00;;;;;;4478450;32;19984;-69
2022/10/17 11:37:00;;;;;;;;;;;19.00;74.20;;;;;;4478702;32;19978;-69
2022/10/17 11:39:28;;;;;;;;;;;19.00;74.00;;;;;;4477547;32;19986;-68
2022/10/17 11:42:11;;;;;;;;;;;19.00;74.10;;;;;;4478457;32;19970;-69
2022/10/17 11:44:38;;;;;;;;;;;19.00;74.10;;;;;;4478589;32;20055;-69
2022/10/17 11:47:10;;;;;;;;;;;19.00;74.10;;;;;;4480138;32;20383;-69
2022/10/17 11:49:37;;;;;;;;;;;19.00;74.10;;;;;;4479504;32;19970;-70
2022/10/17 11:52:06;;;;;;;;;;;19.00;74.30;;;;;;4479264;32;19978;-70
2022/10/17 11:54:41;;;;;;;;;;;19.00;74.40;;;;;;4478425;32;20387;-71
2022/10/17 11:57:10;;;;;;;;;;;19.00;74.60;;;;;;4477915;32;20465;-70
2022/10/17 11:59:44;;;;;;;;;;;19.00;74.40;;;;;;4477909;32;19966;-70
2022/10/17 12:02:17;;;;;;;;;;;19.00;74.40;;;;;;4478297;32;19985;-72
2022/10/17 12:05:03;;;;;;;;;;;19.00;74.40;;;;;;4478151;32;19978;-70
2022/10/17 12:07:41;;;;;;;;;;;19.00;74.50;;;;;;4478383;32;20010;-70
2022/10/17 12:10:26;;;;;;;;;;;19.00;74.50;;;;;;4478130;32;20440;-69
2022/10/17 12:12:51;;;;;;;;;;;19.00;74.50;;;;;;4477814;32;19977;-71
2022/10/17 12:15:24;;;;;;;;;;;19.00;74.50;;;;;;4463640;32;19962;-70
2022/10/17 12:17:53;;;;;;;;;;;19.00;74.40;;;;;;4463589;32;19997;-71
2022/10/17 12:20:19;;;;;;;;;;;19.00;74.50;;;;;;4478227;32;20444;-70
2022/10/17 12:22:51;;;;;;;;;;;19.00;74.60;;;;;;4477881;32;19974;-70
2022/10/17 12:25:21;;;;;;;;;;;19.00;74.60;;;;;;4477771;32;19985;-69
2022/10/17 12:27:48;;;;;;;;;;;19.00;74.80;;;;;;4477901;32;20395;-70
2022/10/17 12:30:22;;;;;;;;;;;19.00;74.80;;;;;;4477771;32;20310;-70
2022/10/17 12:33:07;;;;;;;;;;;19.00;75.20;;;;;;4477652;32;19978;-74
2022/10/17 12:35:34;;;;;;;;;;;19.00;75.20;;;;;;4477344;32;19981;-70
2022/10/17 12:38:01;;;;;;;;;;;19.00;75.20;;;;;;4477970;32;20423;-71
2022/10/17 12:40:36;;;;;;;;;;;19.00;75.00;;;;;;4477408;32;20095;-68
2022/10/17 12:43:14;;;;;;;;;;;19.00;75.20;;;;;;4477639;32;19974;-70
2022/10/17 12:45:43;;;;;;;;;;;19.00;75.30;;;;;;4477512;32;20024;-69
2022/10/17 12:48:09;;;;;;;;;;;19.00;75.20;;;;;;4477466;32;20002;-69
2022/10/17 12:50:54;;;;;;;;;;;19.00;75.20;;;;;;4477336;32;19973;-69
2022/10/17 12:53:22;;;;;;;;;;;19.00;75.20;;;;;;4477549;32;20010;-71
2022/10/17 12:55:50;;;;;;;;;;;19.00;75.00;;;;;;4477434;32;20395;-72
2022/10/17 12:58:16;;;;;;;;;;;19.00;75.20;;;;;;4477413;32;19977;-72
2022/10/17 13:00:52;;;;;;;;;;;19.00;75.30;;;;;;4477209;32;19972;-73
2022/10/17 13:03:21;;;;;;;;;;;19.10;75.50;;;;;;4477174;32;20216;-72
2022/10/17 13:06:06;;;;;;;;;;;19.00;75.40;;;;;;4477306;32;19985;-72
2022/10/17 13:08:33;;;;;;;;;;;19.10;75.30;;;;;;4477708;32;20505;-73
2022/10/17 13:10:59;;;;;;;;;;;19.00;75.30;;;;;;4463201;32;20389;-71
2022/10/17 13:13:32;;;;;;;;;;;19.10;75.30;;;;;;4477169;32;20383;-74
2022/10/17 13:15:58;;;;;;;;;;;19.00;75.20;;;;;;4477364;32;20481;-74
2022/10/17 13:18:26;;;;;;;;;;;19.10;75.30;;;;;;4476933;32;19977;-85
2022/10/17 13:20:56;;;;;;;;;;;19.00;75.20;;;;;;4475069;32;20405;-80
2022/10/17 13:23:25;;;;;;;;;;;19.00;75.10;;;;;;4477432;32;20068;-71
2022/10/17 13:26:19;;;;;;;;;;;19.00;75.10;;;;;;4477253;32;19974;-71
2022/10/17 13:28:45;;;;;;;;;;;19.00;75.10;;;;;;4476318;32;20417;-71
2022/10/17 13:31:26;;;;;;;;;;;19.00;75.20;;;;;;4476984;32;19981;-71
2022/10/17 13:33:55;;;;;;;;;;;19.00;75.20;;;;;;4476988;32;19982;-74
2022/10/17 13:36:20;;;;;;;;;;;19.00;75.10;;;;;;4476575;32;20071;-67
2022/10/17 13:38:46;;;;;;;;;;;19.00;75.20;;;;;;4477090;32;20040;-69
2022/10/17 13:41:13;;;;;;;;;;;19.00;75.20;;;;;;4477187;32;20001;-70
2022/10/17 13:43:39;;;;;;;;;;;19.00;75.20;;;;;;4477185;32;19974;-71
2022/10/17 13:46:05;;;;;;;;;;;19.00;75.20;;;;;;4476829;32;19978;-71
2022/10/17 13:48:33;;;;;;;;;;;19.00;75.20;;;;;;4476963;32;20007;-71
2022/10/17 13:51:00;;;;;;;;;;;19.00;75.30;;;;;;4476929;32;20052;-71
2022/10/17 13:53:31;;;;;;;;;;;19.00;75.30;;;;;;4476449;32;20371;-70
2022/10/17 13:56:01;;;;;;;;;;;19.00;75.40;;;;;;4476817;32;20059;-71
2022/10/17 13:58:31;;;;;;;;;;;19.00;75.40;;;;;;4476777;32;20080;-71
2022/10/17 14:00:57;;;;;;;;;;;19.00;75.50;;;;;;4476848;32;19984;-70
2022/10/17 14:03:24;;;;;;;;;;;19.00;75.60;;;;;;4464216;32;19985;-70
2022/10/17 14:06:08;;;;;;;;;;;19.00;75.60;;;;;;4479649;32;19998;-70
2022/10/17 14:08:35;;;;;;;;;;;19.00;75.70;;;;;;4479990;32;20063;-70
2022/10/17 14:11:01;;;;;;;;;;;19.00;75.60;;;;;;4479870;32;19982;-72
2022/10/17 14:13:29;;;;;;;;;;;19.00;75.60;;;;;;4479984;32;19970;-71
2022/10/17 14:15:57;;;;;;;;;;;19.00;75.50;;;;;;4465716;32;20112;-70
2022/10/17 14:18:25;;;;;;;;;;;19.00;75.30;;;;;;4479512;32;19966;-70
2022/10/17 14:20:51;;;;;;;;;;;19.00;75.20;;;;;;4479768;32;19977;-70
2022/10/17 14:23:26;;;;;;;;;;;19.00;75.20;;;;;;4479461;32;20296;-70
2022/10/17 14:26:02;;;;;;;;;;;19.00;75.20;;;;;;4479646;32;19978;-70